Middle Bass, Ohio
Current Conditions -  °F | °C
As of 5:53 AM on Friday 28 Nov 2014 (Local Time) from KPCW Reporting Station
Clear Clear  
Wind Chill: 12°   Ceiling: Unl
Heat Index: 21°   Visibility: 10mi
Dew Point: 14°   Wind: 8mph
Humidity: 74%   Direction: 260°W
Pressure: 30.34"   Gusts: NA
Location:  41.68°N, 82.81°W
Report Text: KPCW 281053Z AUTO 26007KT 220V280 10SM CLR M06/M10 A3034 RMK AO2
Loading
Personal Weather Stations






























Interactive Weather Map New forecast layout! Learn more

10-Day Weather Forecast

Advertisements
Track Severe Weather on mobile